sensor_id;sensor_type;location;lat;lon;timestamp;pressure;altitude;pressure_sealevel;temperature;humidity
8061;BME280;4073;42.626;25.386;2023-12-29T00:01:45;97787.28;;;2.44;100.00
8061;BME280;4073;42.626;25.386;2023-12-29T00:04:10;97779.75;;;2.47;100.00
8061;BME280;4073;42.626;25.386;2023-12-29T00:06:40;97776.72;;;2.50;100.00
8061;BME280;4073;42.626;25.386;2023-12-29T00:09:06;97765.34;;;2.43;100.00
8061;BME280;4073;42.626;25.386;2023-12-29T00:11:32;97748.13;;;2.41;100.00
8061;BME280;4073;42.626;25.386;2023-12-29T00:13:58;97772.59;;;2.67;100.00
8061;BME280;4073;42.626;25.386;2023-12-29T00:16:24;97776.25;;;2.73;100.00
8061;BME280;4073;42.626;25.386;2023-12-29T00:18:49;97769.56;;;2.70;100.00
8061;BME280;4073;42.626;25.386;2023-12-29T00:21:15;97776.03;;;2.74;100.00
8061;BME280;4073;42.626;25.386;2023-12-29T00:23:40;97732.84;;;2.56;100.00
8061;BME280;4073;42.626;25.386;2023-12-29T00:26:06;97764.91;;;2.66;100.00
8061;BME280;4073;42.626;25.386;2023-12-29T00:28:31;97774.00;;;2.70;100.00
8061;BME280;4073;42.626;25.386;2023-12-29T00:30:57;97756.97;;;2.72;100.00
8061;BME280;4073;42.626;25.386;2023-12-29T00:33:23;97769.97;;;2.74;100.00
8061;BME280;4073;42.626;25.386;2023-12-29T00:35:48;97763.66;;;2.75;100.00
8061;BME280;4073;42.626;25.386;2023-12-29T00:38:14;97745.22;;;2.62;100.00
8061;BME280;4073;42.626;25.386;2023-12-29T00:40:39;97767.13;;;2.76;100.00
8061;BME280;4073;42.626;25.386;2023-12-29T00:43:05;97756.97;;;2.72;100.00
8061;BME280;4073;42.626;25.386;2023-12-29T00:45:30;97753.13;;;2.62;100.00
8061;BME280;4073;42.626;25.386;2023-12-29T00:48:02;97764.50;;;2.62;100.00
8061;BME280;4073;42.626;25.386;2023-12-29T00:50:28;97757.00;;;2.59;100.00
8061;BME280;4073;42.626;25.386;2023-12-29T00:52:53;97757.38;;;2.63;100.00
8061;BME280;4073;42.626;25.386;2023-12-29T00:55:19;97750.13;;;2.58;100.00
8061;BME280;4073;42.626;25.386;2023-12-29T00:57:45;97737.34;;;2.42;100.00
8061;BME280;4073;42.626;25.386;2023-12-29T01:00:12;97761.28;;;2.47;100.00
8061;BME280;4073;42.626;25.386;2023-12-29T01:02:38;97750.94;;;2.52;100.00
8061;BME280;4073;42.626;25.386;2023-12-29T01:05:05;97744.03;;;2.51;100.00
8061;BME280;4073;42.626;25.386;2023-12-29T01:07:30;97750.31;;;2.57;100.00
8061;BME280;4073;42.626;25.386;2023-12-29T01:09:56;97724.59;;;2.33;100.00
8061;BME280;4073;42.626;25.386;2023-12-29T01:12:21;97755.22;;;2.47;100.00
8061;BME280;4073;42.626;25.386;2023-12-29T01:14:47;97756.66;;;2.43;100.00
8061;BME280;4073;42.626;25.386;2023-12-29T01:17:12;97724.22;;;2.23;100.00
8061;BME280;4073;42.626;25.386;2023-12-29T01:19:38;97716.69;;;2.20;100.00
8061;BME280;4073;42.626;25.386;2023-12-29T01:22:04;97730.88;;;2.38;100.00
8061;BME280;4073;42.626;25.386;2023-12-29T01:24:30;97739.81;;;2.31;100.00
8061;BME280;4073;42.626;25.386;2023-12-29T01:26:56;97733.53;;;2.25;100.00
8061;BME280;4073;42.626;25.386;2023-12-29T01:29:21;97737.00;;;2.26;100.00
8061;BME280;4073;42.626;25.386;2023-12-29T01:31:47;97739.41;;;2.27;100.00
8061;BME280;4073;42.626;25.386;2023-12-29T01:34:13;97702.91;;;2.11;100.00
8061;BME280;4073;42.626;25.386;2023-12-29T01:36:38;97720.09;;;2.33;100.00
8061;BME280;4073;42.626;25.386;2023-12-29T01:39:04;97721.75;;;2.34;100.00
8061;BME280;4073;42.626;25.386;2023-12-29T01:41:29;97717.47;;;2.33;100.00
8061;BME280;4073;42.626;25.386;2023-12-29T01:46:31;97714.38;;;2.56;100.00
8061;BME280;4073;42.626;25.386;2023-12-29T01:48:58;97712.91;;;2.66;100.00
8061;BME280;4073;42.626;25.386;2023-12-29T01:51:25;97710.06;;;2.68;100.00
8061;BME280;4073;42.626;25.386;2023-12-29T01:53:52;97714.53;;;2.67;100.00
8061;BME280;4073;42.626;25.386;2023-12-29T01:56:20;97718.41;;;2.65;100.00
8061;BME280;4073;42.626;25.386;2023-12-29T01:58:48;97676.25;;;2.39;100.00
8061;BME280;4073;42.626;25.386;2023-12-29T02:01:14;97705.44;;;2.57;100.00
8061;BME280;4073;42.626;25.386;2023-12-29T02:03:40;97688.63;;;2.51;100.00
8061;BME280;4073;42.626;25.386;2023-12-29T02:06:06;97666.34;;;2.28;100.00
8061;BME280;4073;42.626;25.386;2023-12-29T02:08:33;97692.47;;;2.49;100.00
8061;BME280;4073;42.626;25.386;2023-12-29T02:10:59;97659.47;;;2.20;100.00
8061;BME280;4073;42.626;25.386;2023-12-29T02:13:24;97639.22;;;2.14;100.00
8061;BME280;4073;42.626;25.386;2023-12-29T02:15:54;97686.84;;;2.32;100.00
8061;BME280;4073;42.626;25.386;2023-12-29T02:18:25;97685.44;;;2.23;100.00
8061;BME280;4073;42.626;25.386;2023-12-29T02:20:52;97682.19;;;2.15;100.00
8061;BME280;4073;42.626;25.386;2023-12-29T02:23:17;97686.28;;;2.04;100.00
8061;BME280;4073;42.626;25.386;2023-12-29T02:25:43;97680.59;;;2.01;100.00
8061;BME280;4073;42.626;25.386;2023-12-29T02:30:41;97678.19;;;1.93;100.00
8061;BME280;4073;42.626;25.386;2023-12-29T02:33:10;97646.00;;;1.65;100.00
8061;BME280;4073;42.626;25.386;2023-12-29T02:35:42;97671.72;;;1.82;100.00
8061;BME280;4073;42.626;25.386;2023-12-29T02:38:09;97672.13;;;1.86;100.00
8061;BME280;4073;42.626;25.386;2023-12-29T02:40:35;97661.59;;;1.86;100.00
8061;BME280;4073;42.626;25.386;2023-12-29T02:43:00;97663.41;;;1.85;100.00
8061;BME280;4073;42.626;25.386;2023-12-29T02:45:26;97667.25;;;1.83;100.00
8061;BME280;4073;42.626;25.386;2023-12-29T02:47:52;97669.28;;;1.74;100.00
8061;BME280;4073;42.626;25.386;2023-12-29T02:50:18;97663.81;;;1.69;100.00
8061;BME280;4073;42.626;25.386;2023-12-29T02:52:44;97662.78;;;1.64;100.00
8061;BME280;4073;42.626;25.386;2023-12-29T02:55:09;97662.22;;;1.62;100.00
8061;BME280;4073;42.626;25.386;2023-12-29T02:57:35;97667.06;;;1.58;100.00
8061;BME280;4073;42.626;25.386;2023-12-29T03:00:00;97661.59;;;1.73;100.00
8061;BME280;4073;42.626;25.386;2023-12-29T03:02:26;97656.50;;;1.71;100.00
8061;BME280;4073;42.626;25.386;2023-12-29T03:04:52;97655.88;;;1.82;100.00
8061;BME280;4073;42.626;25.386;2023-12-29T03:07:17;97644.56;;;1.82;100.00
8061;BME280;4073;42.626;25.386;2023-12-29T03:09:43;97646.16;;;1.96;100.00
8061;BME280;4073;42.626;25.386;2023-12-29T03:12:08;97595.28;;;1.69;100.00
8061;BME280;4073;42.626;25.386;2023-12-29T03:14:34;97636.59;;;2.01;100.00
8061;BME280;4073;42.626;25.386;2023-12-29T03:17:00;97636.19;;;1.98;100.00
8061;BME280;4073;42.626;25.386;2023-12-29T03:19:25;97646.91;;;2.09;100.00
8061;BME280;4073;42.626;25.386;2023-12-29T03:21:52;97643.28;;;2.04;100.00
8061;BME280;4073;42.626;25.386;2023-12-29T03:24:19;97602.75;;;1.85;100.00
8061;BME280;4073;42.626;25.386;2023-12-29T03:26:45;97639.81;;;2.03;100.00
8061;BME280;4073;42.626;25.386;2023-12-29T03:29:11;97636.59;;;2.01;100.00
8061;BME280;4073;42.626;25.386;2023-12-29T03:31:36;97640.66;;;2.04;100.00
8061;BME280;4073;42.626;25.386;2023-12-29T03:34:02;97635.38;;;2.04;100.00
8061;BME280;4073;42.626;25.386;2023-12-29T03:36:27;97637.84;;;1.99;100.00
8061;BME280;4073;42.626;25.386;2023-12-29T03:38:53;97632.75;;;1.91;100.00
8061;BME280;4073;42.626;25.386;2023-12-29T03:41:18;97607.88;;;1.67;100.00
8061;BME280;4073;42.626;25.386;2023-12-29T03:43:44;97640.66;;;1.91;100.00
8061;BME280;4073;42.626;25.386;2023-12-29T03:46:20;97635.19;;;1.92;100.00
8061;BME280;4073;42.626;25.386;2023-12-29T03:48:47;97635.41;;;1.84;100.00
8061;BME280;4073;42.626;25.386;2023-12-29T03:51:13;97605.63;;;1.58;100.00
8061;BME280;4073;42.626;25.386;2023-12-29T03:53:39;97627.91;;;1.81;100.00
8061;BME280;4073;42.626;25.386;2023-12-29T03:56:08;97648.00;;;1.76;100.00
8061;BME280;4073;42.626;25.386;2023-12-29T03:58:37;97638.47;;;1.68;100.00
8061;BME280;4073;42.626;25.386;2023-12-29T04:01:03;97625.91;;;1.64;100.00
8061;BME280;4073;42.626;25.386;2023-12-29T04:03:29;97631.78;;;1.66;100.00
8061;BME280;4073;42.626;25.386;2023-12-29T04:05:54;97637.88;;;1.60;100.00
8061;BME280;4073;42.626;25.386;2023-12-29T04:08:20;97633.81;;;1.51;100.00
8061;BME280;4073;42.626;25.386;2023-12-29T04:10:45;97627.56;;;1.52;100.00
8061;BME280;4073;42.626;25.386;2023-12-29T04:13:11;97632.19;;;1.50;100.00
8061;BME280;4073;42.626;25.386;2023-12-29T04:15:37;97625.91;;;1.44;100.00
8061;BME280;4073;42.626;25.386;2023-12-29T04:18:02;97592.91;;;1.29;100.00
8061;BME280;4073;42.626;25.386;2023-12-29T04:20:28;97630.38;;;1.37;100.00
8061;BME280;4073;42.626;25.386;2023-12-29T04:22:54;97588.44;;;1.16;100.00
8061;BME280;4073;42.626;25.386;2023-12-29T04:25:20;97628.75;;;1.49;100.00
8061;BME280;4073;42.626;25.386;2023-12-29T04:27:45;97631.38;;;1.49;100.00
8061;BME280;4073;42.626;25.386;2023-12-29T04:30:11;97630.38;;;1.50;100.00
8061;BME280;4073;42.626;25.386;2023-12-29T04:32:37;97590.06;;;1.17;100.00
8061;BME280;4073;42.626;25.386;2023-12-29T04:35:02;97635.03;;;1.35;100.00
8061;BME280;4073;42.626;25.386;2023-12-29T04:37:28;97624.28;;;1.37;100.00
8061;BME280;4073;42.626;25.386;2023-12-29T04:39:53;97621.84;;;1.35;100.00
8061;BME280;4073;42.626;25.386;2023-12-29T04:42:19;97624.72;;;1.40;100.00
8061;BME280;4073;42.626;25.386;2023-12-29T04:44:44;97616.00;;;1.40;100.00
8061;BME280;4073;42.626;25.386;2023-12-29T04:47:10;97616.59;;;1.35;100.00
8061;BME280;4073;42.626;25.386;2023-12-29T04:49:35;97621.28;;;1.33;100.00
8061;BME280;4073;42.626;25.386;2023-12-29T04:52:01;97592.91;;;1.09;100.00
8061;BME280;4073;42.626;25.386;2023-12-29T04:54:27;97580.94;;;1.07;100.00
8061;BME280;4073;42.626;25.386;2023-12-29T04:56:53;97615.81;;;1.35;100.00
8061;BME280;4073;42.626;25.386;2023-12-29T04:59:18;97611.94;;;1.37;100.00
8061;BME280;4073;42.626;25.386;2023-12-29T05:01:44;97628.56;;;1.31;100.00
8061;BME280;4073;42.626;25.386;2023-12-29T05:04:10;97623.69;;;1.28;100.00
8061;BME280;4073;42.626;25.386;2023-12-29T05:06:35;97637.25;;;1.25;100.00
8061;BME280;4073;42.626;25.386;2023-12-29T05:09:01;97622.88;;;1.21;100.00
8061;BME280;4073;42.626;25.386;2023-12-29T05:11:26;97604.81;;;0.99;100.00
8061;BME280;4073;42.626;25.386;2023-12-29T05:13:52;97628.13;;;1.21;100.00
8061;BME280;4073;42.626;25.386;2023-12-29T05:16:17;97627.75;;;1.24;100.00
8061;BME280;4073;42.626;25.386;2023-12-29T05:18:43;97626.91;;;1.24;100.00
8061;BME280;4073;42.626;25.386;2023-12-29T05:21:16;97629.97;;;1.21;100.00
8061;BME280;4073;42.626;25.386;2023-12-29T05:23:43;97632.78;;;1.06;100.00
8061;BME280;4073;42.626;25.386;2023-12-29T05:26:08;97623.69;;;1.09;100.00
8061;BME280;4073;42.626;25.386;2023-12-29T05:28:34;97626.50;;;1.14;100.00
8061;BME280;4073;42.626;25.386;2023-12-29T05:30:59;97624.09;;;1.12;100.00
8061;BME280;4073;42.626;25.386;2023-12-29T05:33:29;97626.31;;;1.15;100.00
8061;BME280;4073;42.626;25.386;2023-12-29T05:35:54;97596.53;;;0.95;100.00
8061;BME280;4073;42.626;25.386;2023-12-29T05:38:20;97626.91;;;1.24;100.00
8061;BME280;4073;42.626;25.386;2023-12-29T05:40:45;97624.31;;;1.30;100.00
8061;BME280;4073;42.626;25.386;2023-12-29T05:43:11;97629.56;;;1.37;100.00
8061;BME280;4073;42.626;25.386;2023-12-29T05:45:36;97631.81;;;1.33;100.00
8061;BME280;4073;42.626;25.386;2023-12-29T05:48:02;97629.75;;;1.35;100.00
8061;BME280;4073;42.626;25.386;2023-12-29T05:50:28;97637.28;;;1.32;100.00
8061;BME280;4073;42.626;25.386;2023-12-29T05:52:53;97635.84;;;1.23;100.00
8061;BME280;4073;42.626;25.386;2023-12-29T05:55:19;97603.00;;;0.93;100.00
8061;BME280;4073;42.626;25.386;2023-12-29T05:57:45;97637.06;;;1.20;100.00
8061;BME280;4073;42.626;25.386;2023-12-29T06:00:11;97592.47;;;0.93;100.00
8061;BME280;4073;42.626;25.386;2023-12-29T06:02:42;97634.00;;;1.17;100.00
8061;BME280;4073;42.626;25.386;2023-12-29T06:05:11;97640.72;;;1.19;100.00
8061;BME280;4073;42.626;25.386;2023-12-29T06:07:37;97598.34;;;0.95;100.00
8061;BME280;4073;42.626;25.386;2023-12-29T06:10:03;97631.38;;;1.30;100.00
8061;BME280;4073;42.626;25.386;2023-12-29T06:12:29;97635.84;;;1.42;100.00
8061;BME280;4073;42.626;25.386;2023-12-29T06:14:55;97636.47;;;1.44;100.00
8061;BME280;4073;42.626;25.386;2023-12-29T06:17:20;97610.09;;;1.18;100.00
8061;BME280;4073;42.626;25.386;2023-12-29T06:19:46;97645.78;;;1.53;100.00
8061;BME280;4073;42.626;25.386;2023-12-29T06:22:11;97642.31;;;1.59;100.00
8061;BME280;4073;42.626;25.386;2023-12-29T06:24:39;97641.91;;;1.75;100.00
8061;BME280;4073;42.626;25.386;2023-12-29T06:27:05;97637.44;;;2.52;100.00
8061;BME280;4073;42.626;25.386;2023-12-29T06:29:30;97637.81;;;3.80;100.00
8061;BME280;4073;42.626;25.386;2023-12-29T06:31:56;97648.00;;;5.03;100.00
8061;BME280;4073;42.626;25.386;2023-12-29T06:34:21;97643.78;;;6.35;96.00
8061;BME280;4073;42.626;25.386;2023-12-29T06:36:47;97643.13;;;7.85;84.55
8061;BME280;4073;42.626;25.386;2023-12-29T06:39:12;97655.88;;;9.19;70.79
8061;BME280;4073;42.626;25.386;2023-12-29T06:41:38;97661.41;;;10.02;62.77
8061;BME280;4073;42.626;25.386;2023-12-29T06:44:04;97657.06;;;11.56;55.91
8061;BME280;4073;42.626;25.386;2023-12-29T06:46:29;97652.06;;;13.57;48.13
8061;BME280;4073;42.626;25.386;2023-12-29T06:48:55;97651.03;;;14.25;43.88
8061;BME280;4073;42.626;25.386;2023-12-29T06:51:20;97652.44;;;15.35;41.29
8061;BME280;4073;42.626;25.386;2023-12-29T06:53:48;97640.25;;;16.44;37.89
8061;BME280;4073;42.626;25.386;2023-12-29T06:56:17;97663.38;;;16.50;37.55
8061;BME280;4073;42.626;25.386;2023-12-29T06:58:43;97664.19;;;16.64;37.00
8061;BME280;4073;42.626;25.386;2023-12-29T07:01:09;97659.44;;;15.92;38.39
8061;BME280;4073;42.626;25.386;2023-12-29T07:03:35;97659.47;;;16.56;37.82
8061;BME280;4073;42.626;25.386;2023-12-29T07:06:00;97665.88;;;16.60;37.26
8061;BME280;4073;42.626;25.386;2023-12-29T07:08:27;97657.09;;;16.81;37.72
8061;BME280;4073;42.626;25.386;2023-12-29T07:10:52;97658.50;;;17.06;37.37
8061;BME280;4073;42.626;25.386;2023-12-29T07:13:18;97657.06;;;17.35;36.87
8061;BME280;4073;42.626;25.386;2023-12-29T07:15:45;97656.72;;;18.74;34.80
8061;BME280;4073;42.626;25.386;2023-12-29T07:18:10;97655.91;;;18.21;34.65
8061;BME280;4073;42.626;25.386;2023-12-29T07:20:36;97656.03;;;18.38;34.43
8061;BME280;4073;42.626;25.386;2023-12-29T07:23:02;97659.09;;;18.67;34.48
8061;BME280;4073;42.626;25.386;2023-12-29T07:25:27;97654.13;;;19.00;33.79
8061;BME280;4073;42.626;25.386;2023-12-29T07:27:53;97654.56;;;19.41;33.21
8061;BME280;4073;42.626;25.386;2023-12-29T07:30:18;97639.94;;;19.76;32.92
8061;BME280;4073;42.626;25.386;2023-12-29T07:32:44;97648.66;;;20.50;31.92
8061;BME280;4073;42.626;25.386;2023-12-29T07:35:10;97638.63;;;21.25;30.30
8061;BME280;4073;42.626;25.386;2023-12-29T07:37:35;97638.44;;;21.30;30.65
8061;BME280;4073;42.626;25.386;2023-12-29T07:40:01;97645.75;;;22.73;28.76
8061;BME280;4073;42.626;25.386;2023-12-29T07:42:27;97650.19;;;23.62;27.69
8061;BME280;4073;42.626;25.386;2023-12-29T07:44:52;97650.66;;;23.52;27.58
8061;BME280;4073;42.626;25.386;2023-12-29T07:47:20;97651.41;;;24.87;26.67
8061;BME280;4073;42.626;25.386;2023-12-29T07:49:46;97636.59;;;25.19;25.69
8061;BME280;4073;42.626;25.386;2023-12-29T07:52:11;97647.28;;;25.74;25.10
8061;BME280;4073;42.626;25.386;2023-12-29T07:54:37;97658.53;;;26.61;23.94
8061;BME280;4073;42.626;25.386;2023-12-29T07:57:02;97658.84;;;27.01;23.35
8061;BME280;4073;42.626;25.386;2023-12-29T07:59:28;97655.53;;;27.14;23.59
8061;BME280;4073;42.626;25.386;2023-12-29T08:01:53;97660.38;;;27.70;22.69
8061;BME280;4073;42.626;25.386;2023-12-29T08:04:19;97645.81;;;27.39;22.60
8061;BME280;4073;42.626;25.386;2023-12-29T08:06:44;97650.09;;;27.37;23.12
8061;BME280;4073;42.626;25.386;2023-12-29T08:09:10;97644.25;;;27.94;22.18
8061;BME280;4073;42.626;25.386;2023-12-29T08:11:36;97649.53;;;27.80;22.30
8061;BME280;4073;42.626;25.386;2023-12-29T08:14:01;97655.22;;;28.90;21.33
8061;BME280;4073;42.626;25.386;2023-12-29T08:16:27;97650.63;;;28.64;21.51
8061;BME280;4073;42.626;25.386;2023-12-29T08:18:52;97661.38;;;27.32;22.21
8061;BME280;4073;42.626;25.386;2023-12-29T08:21:19;97661.19;;;26.38;23.48
8061;BME280;4073;42.626;25.386;2023-12-29T08:23:46;97645.41;;;25.59;24.47
8061;BME280;4073;42.626;25.386;2023-12-29T08:26:11;97656.44;;;24.69;25.25
8061;BME280;4073;42.626;25.386;2023-12-29T08:28:37;97650.91;;;24.38;25.47
8061;BME280;4073;42.626;25.386;2023-12-29T08:31:03;97656.72;;;25.42;24.59
8061;BME280;4073;42.626;25.386;2023-12-29T08:33:28;97636.31;;;26.88;22.87
8061;BME280;4073;42.626;25.386;2023-12-29T08:35:54;97647.31;;;28.19;21.76
8061;BME280;4073;42.626;25.386;2023-12-29T08:38:24;97638.91;;;27.79;22.19
8061;BME280;4073;42.626;25.386;2023-12-29T08:40:50;97647.69;;;28.47;21.31
8061;BME280;4073;42.626;25.386;2023-12-29T08:43:15;97627.91;;;28.05;21.37
8061;BME280;4073;42.626;25.386;2023-12-29T08:45:46;97638.81;;;27.98;21.38
8061;BME280;4073;42.626;25.386;2023-12-29T08:48:11;97642.38;;;27.46;22.00
8061;BME280;4073;42.626;25.386;2023-12-29T08:50:37;97645.44;;;27.41;21.86
8061;BME280;4073;42.626;25.386;2023-12-29T08:53:02;97644.53;;;27.60;22.27
8061;BME280;4073;42.626;25.386;2023-12-29T08:55:28;97640.72;;;28.27;21.17
8061;BME280;4073;42.626;25.386;2023-12-29T08:57:53;97639.75;;;28.75;20.86
8061;BME280;4073;42.626;25.386;2023-12-29T09:00:20;97633.84;;;29.16;20.13
8061;BME280;4073;42.626;25.386;2023-12-29T09:02:45;97636.69;;;28.83;20.56
8061;BME280;4073;42.626;25.386;2023-12-29T09:05:12;97628.09;;;28.52;20.50
8061;BME280;4073;42.626;25.386;2023-12-29T09:07:37;97629.56;;;29.19;20.33
8061;BME280;4073;42.626;25.386;2023-12-29T09:10:03;97635.59;;;28.55;21.01
8061;BME280;4073;42.626;25.386;2023-12-29T09:12:36;97626.63;;;28.61;20.92
8061;BME280;4073;42.626;25.386;2023-12-29T09:15:02;97628.56;;;29.48;20.23
8061;BME280;4073;42.626;25.386;2023-12-29T09:17:28;97620.16;;;29.27;19.97
8061;BME280;4073;42.626;25.386;2023-12-29T09:19:53;97611.84;;;29.20;19.71
8061;BME280;4073;42.626;25.386;2023-12-29T09:22:20;97608.91;;;30.18;19.33
8061;BME280;4073;42.626;25.386;2023-12-29T09:24:45;97610.94;;;30.28;18.96
8061;BME280;4073;42.626;25.386;2023-12-29T09:27:11;97618.06;;;30.46;18.84
8061;BME280;4073;42.626;25.386;2023-12-29T09:29:37;97613.16;;;30.05;18.93
8061;BME280;4073;42.626;25.386;2023-12-29T09:32:03;97608.09;;;30.14;18.75
8061;BME280;4073;42.626;25.386;2023-12-29T09:34:28;97607.84;;;30.64;18.91
8061;BME280;4073;42.626;25.386;2023-12-29T09:36:54;97606.31;;;30.67;18.33
8061;BME280;4073;42.626;25.386;2023-12-29T09:39:19;97603.94;;;30.58;18.36
8061;BME280;4073;42.626;25.386;2023-12-29T09:41:46;97610.31;;;31.08;18.13
8061;BME280;4073;42.626;25.386;2023-12-29T09:44:16;97598.88;;;31.27;17.93
8061;BME280;4073;42.626;25.386;2023-12-29T09:46:43;97604.00;;;31.04;18.33
8061;BME280;4073;42.626;25.386;2023-12-29T09:49:11;97569.63;;;30.59;18.47
8061;BME280;4073;42.626;25.386;2023-12-29T09:51:38;97587.34;;;30.51;18.48
8061;BME280;4073;42.626;25.386;2023-12-29T09:54:06;97566.94;;;29.73;18.69
8061;BME280;4073;42.626;25.386;2023-12-29T09:56:33;97583.66;;;28.90;19.91
8061;BME280;4073;42.626;25.386;2023-12-29T09:58:59;97552.06;;;28.00;20.62
8061;BME280;4073;42.626;25.386;2023-12-29T10:01:27;97578.41;;;27.19;21.29
8061;BME280;4073;42.626;25.386;2023-12-29T10:03:54;97574.97;;;27.26;21.28
8061;BME280;4073;42.626;25.386;2023-12-29T10:06:24;97568.69;;;26.13;22.02
8061;BME280;4073;42.626;25.386;2023-12-29T10:08:50;97561.19;;;25.37;23.06
8061;BME280;4073;42.626;25.386;2023-12-29T10:11:18;97555.44;;;24.76;23.69
8061;BME280;4073;42.626;25.386;2023-12-29T10:13:46;97563.66;;;23.90;24.73
8061;BME280;4073;42.626;25.386;2023-12-29T10:16:20;97560.16;;;23.50;25.44
8061;BME280;4073;42.626;25.386;2023-12-29T10:21:56;97530.13;;;22.87;26.24
8061;BME280;4073;42.626;25.386;2023-12-29T10:24:27;97547.25;;;22.99;26.18
8061;BME280;4073;42.626;25.386;2023-12-29T10:26:54;97544.41;;;22.96;26.49
8061;BME280;4073;42.626;25.386;2023-12-29T10:29:20;97536.34;;;22.87;26.29
8061;BME280;4073;42.626;25.386;2023-12-29T10:31:46;97537.69;;;23.17;26.10
8061;BME280;4073;42.626;25.386;2023-12-29T10:37:00;97528.34;;;23.70;25.15
8061;BME280;4073;42.626;25.386;2023-12-29T10:39:28;97526.81;;;23.84;24.97
8061;BME280;4073;42.626;25.386;2023-12-29T10:44:33;97513.09;;;24.24;24.34
8061;BME280;4073;42.626;25.386;2023-12-29T10:47:07;97509.50;;;24.51;24.01
8061;BME280;4073;42.626;25.386;2023-12-29T10:49:33;97517.84;;;24.58;23.42
8061;BME280;4073;42.626;25.386;2023-12-29T10:51:59;97510.53;;;24.46;23.00
8061;BME280;4073;42.626;25.386;2023-12-29T10:54:25;97507.75;;;24.74;22.80
8061;BME280;4073;42.626;25.386;2023-12-29T10:57:03;97478.97;;;24.33;22.68
8061;BME280;4073;42.626;25.386;2023-12-29T10:59:29;97505.94;;;24.19;23.02
8061;BME280;4073;42.626;25.386;2023-12-29T11:01:56;97504.72;;;24.17;23.32
8061;BME280;4073;42.626;25.386;2023-12-29T11:04:24;97497.22;;;23.86;23.67
8061;BME280;4073;42.626;25.386;2023-12-29T11:06:50;97487.88;;;23.72;23.89
8061;BME280;4073;42.626;25.386;2023-12-29T11:09:30;97481.66;;;23.59;24.06
8061;BME280;4073;42.626;25.386;2023-12-29T11:12:00;97473.31;;;23.68;24.05
8061;BME280;4073;42.626;25.386;2023-12-29T11:14:26;97477.34;;;23.58;23.89
8061;BME280;4073;42.626;25.386;2023-12-29T11:16:56;97482.91;;;23.62;24.22
8061;BME280;4073;42.626;25.386;2023-12-29T11:19:22;97440.13;;;23.38;24.16
8061;BME280;4073;42.626;25.386;2023-12-29T11:21:52;97463.91;;;23.81;24.24
8061;BME280;4073;42.626;25.386;2023-12-29T11:24:22;97437.31;;;23.78;23.95
8061;BME280;4073;42.626;25.386;2023-12-29T11:26:50;97460.56;;;24.15;23.37
8061;BME280;4073;42.626;25.386;2023-12-29T11:29:16;97466.28;;;24.10;23.45
8061;BME280;4073;42.626;25.386;2023-12-29T11:31:43;97462.50;;;23.99;23.25
8061;BME280;4073;42.626;25.386;2023-12-29T11:34:18;97425.41;;;23.55;22.77
8061;BME280;4073;42.626;25.386;2023-12-29T11:36:46;97460.81;;;23.67;23.65
8061;BME280;4073;42.626;25.386;2023-12-29T11:39:38;97460.69;;;23.48;23.55
8061;BME280;4073;42.626;25.386;2023-12-29T11:42:11;97447.84;;;23.64;23.25
8061;BME280;4073;42.626;25.386;2023-12-29T11:44:39;97454.03;;;23.76;23.21
8061;BME280;4073;42.626;25.386;2023-12-29T11:47:05;97440.66;;;23.71;23.02
8061;BME280;4073;42.626;25.386;2023-12-29T11:49:59;97453.59;;;23.59;23.26
8061;BME280;4073;42.626;25.386;2023-12-29T11:52:38;97440.53;;;23.25;23.69
8061;BME280;4073;42.626;25.386;2023-12-29T11:55:11;97451.94;;;23.42;23.48
8061;BME280;4073;42.626;25.386;2023-12-29T11:57:38;97417.97;;;22.88;23.84
8061;BME280;4073;42.626;25.386;2023-12-29T12:00:06;97442.63;;;22.92;24.09
8061;BME280;4073;42.626;25.386;2023-12-29T12:02:32;97435.56;;;22.51;24.17
8061;BME280;4073;42.626;25.386;2023-12-29T12:04:57;97431.53;;;22.24;24.93
8061;BME280;4073;42.626;25.386;2023-12-29T12:09:49;97437.81;;;21.48;25.87
8061;BME280;4073;42.626;25.386;2023-12-29T12:12:40;97441.84;;;21.30;26.55
8061;BME280;4073;42.626;25.386;2023-12-29T12:17:55;97430.53;;;21.07;27.72
8061;BME280;4073;42.626;25.386;2023-12-29T12:20:20;97444.44;;;21.06;27.95
8061;BME280;4073;42.626;25.386;2023-12-29T12:22:50;97439.78;;;20.86;28.12
8061;BME280;4073;42.626;25.386;2023-12-29T12:25:22;97440.59;;;20.57;28.41
8061;BME280;4073;42.626;25.386;2023-12-29T12:27:47;97432.72;;;20.35;28.88
8061;BME280;4073;42.626;25.386;2023-12-29T12:30:18;97432.03;;;20.17;28.99
8061;BME280;4073;42.626;25.386;2023-12-29T12:32:44;97424.66;;;20.18;29.43
8061;BME280;4073;42.626;25.386;2023-12-29T12:35:14;97429.16;;;20.14;29.57
8061;BME280;4073;42.626;25.386;2023-12-29T12:37:40;97431.19;;;19.88;29.91
8061;BME280;4073;42.626;25.386;2023-12-29T12:40:06;97440.16;;;19.71;30.33
8061;BME280;4073;42.626;25.386;2023-12-29T12:42:38;97432.84;;;19.55;30.74
8061;BME280;4073;42.626;25.386;2023-12-29T12:47:45;97436.84;;;19.49;30.99
8061;BME280;4073;42.626;25.386;2023-12-29T12:50:12;97435.75;;;19.41;31.49
8061;BME280;4073;42.626;25.386;2023-12-29T12:52:38;97435.75;;;19.41;31.59
8061;BME280;4073;42.626;25.386;2023-12-29T12:55:05;97443.25;;;19.36;32.45
8061;BME280;4073;42.626;25.386;2023-12-29T12:57:31;97437.03;;;19.10;32.76
8061;BME280;4073;42.626;25.386;2023-12-29T12:59:59;97440.84;;;18.92;33.26
8061;BME280;4073;42.626;25.386;2023-12-29T13:02:26;97444.50;;;18.79;33.95
8061;BME280;4073;42.626;25.386;2023-12-29T13:04:52;97440.03;;;18.66;34.29
8061;BME280;4073;42.626;25.386;2023-12-29T13:07:18;97439.50;;;18.47;34.75
8061;BME280;4073;42.626;25.386;2023-12-29T13:09:45;97431.81;;;18.32;34.94
8061;BME280;4073;42.626;25.386;2023-12-29T13:12:12;97435.84;;;18.03;35.54
8061;BME280;4073;42.626;25.386;2023-12-29T13:14:39;97443.41;;;17.84;35.78
8061;BME280;4073;42.626;25.386;2023-12-29T13:17:06;97448.19;;;17.87;35.84
8061;BME280;4073;42.626;25.386;2023-12-29T13:19:32;97449.91;;;17.83;35.65
8061;BME280;4073;42.626;25.386;2023-12-29T13:21:59;97440.72;;;17.62;36.52
8061;BME280;4073;42.626;25.386;2023-12-29T13:24:25;97445.84;;;17.64;36.47
8061;BME280;4073;42.626;25.386;2023-12-29T13:26:54;97433.25;;;17.59;36.72
8061;BME280;4073;42.626;25.386;2023-12-29T13:29:22;97440.53;;;17.50;36.90